createdAt,value
2017-07-21T00:01:19.067Z,2.10
2017-07-21T00:03:46.496Z,2.10
2017-07-21T00:06:13.908Z,1.60
2017-07-21T00:08:42.104Z,1.83
2017-07-21T00:11:09.514Z,2.23
2017-07-21T00:13:36.940Z,1.80
2017-07-21T00:16:04.359Z,1.90
2017-07-21T00:18:31.783Z,1.70
2017-07-21T00:20:59.200Z,1.77
2017-07-21T00:23:26.624Z,2.07
2017-07-21T00:25:54.036Z,1.83
2017-07-21T00:28:21.456Z,1.80
2017-07-21T00:30:48.868Z,1.90
2017-07-21T00:33:16.291Z,2.30
2017-07-21T00:35:43.708Z,2.10
2017-07-21T00:38:11.140Z,2.00
2017-07-21T00:40:39.320Z,2.00
2017-07-21T00:43:06.743Z,2.27
2017-07-21T00:45:34.180Z,2.10
2017-07-21T00:48:01.628Z,1.83
2017-07-21T00:50:29.048Z,1.70
2017-07-21T00:52:56.460Z,2.00
2017-07-21T00:55:23.964Z,1.77
2017-07-21T00:57:51.375Z,1.90
2017-07-21T01:00:18.799Z,1.70
2017-07-21T01:02:46.220Z,2.27
2017-07-21T01:05:13.637Z,2.00
2017-07-21T01:07:41.052Z,1.90
2017-07-21T01:10:08.471Z,1.67
2017-07-21T01:12:35.880Z,1.87
2017-07-21T01:15:03.308Z,2.57
2017-07-21T01:17:30.720Z,2.20
2017-07-21T01:19:58.145Z,2.13
2017-07-21T01:22:25.838Z,2.00
2017-07-21T01:24:53.264Z,1.63
2017-07-21T01:27:20.679Z,1.60
2017-07-21T01:29:48.103Z,2.40
2017-07-21T01:32:15.521Z,1.77
2017-07-21T01:34:42.941Z,1.90
2017-07-21T01:37:11.128Z,1.60
2017-07-21T01:39:38.539Z,2.10
2017-07-21T01:42:05.969Z,2.53
2017-07-21T01:44:33.425Z,1.70
2017-07-21T01:47:00.984Z,1.90
2017-07-21T01:49:28.399Z,1.70
2017-07-21T01:51:55.824Z,2.03
2017-07-21T01:54:23.241Z,1.70
2017-07-21T01:56:50.800Z,2.00
2017-07-21T01:59:18.211Z,2.20
2017-07-21T02:01:45.640Z,1.80
2017-07-21T02:04:13.056Z,2.30
2017-07-21T02:06:40.475Z,1.87
2017-07-21T02:09:08.655Z,2.67
2017-07-21T02:11:36.080Z,2.40
2017-07-21T02:14:03.491Z,2.87
2017-07-21T02:16:30.936Z,2.60
2017-07-21T02:18:58.520Z,3.30
2017-07-21T02:21:25.935Z,2.70
2017-07-21T02:23:53.359Z,3.10
2017-07-21T02:26:20.781Z,2.67
2017-07-21T02:28:48.208Z,3.00
2017-07-21T02:31:16.399Z,3.07
2017-07-21T02:33:43.804Z,2.97
2017-07-21T02:36:11.225Z,3.30
2017-07-21T02:38:38.651Z,2.90
2017-07-21T02:41:06.827Z,2.67
2017-07-21T02:43:34.247Z,3.30
2017-07-21T02:46:01.673Z,3.00
2017-07-21T02:48:29.108Z,3.17
2017-07-21T02:50:56.523Z,2.80
2017-07-21T02:53:23.948Z,2.70
2017-07-21T02:55:51.364Z,3.10
2017-07-21T02:58:18.783Z,3.00
2017-07-21T03:00:46.198Z,3.43
2017-07-21T03:03:13.625Z,2.50
2017-07-21T03:05:41.040Z,3.20
2017-07-21T03:08:08.466Z,2.33
2017-07-21T03:10:35.887Z,2.70
2017-07-21T03:13:04.076Z,2.80
2017-07-21T03:15:31.487Z,2.50
2017-07-21T03:17:58.905Z,2.57
2017-07-21T03:20:26.327Z,3.07
2017-07-21T03:23:06.416Z,2.53
2017-07-21T03:25:33.843Z,2.43
2017-07-21T03:28:01.256Z,2.37
2017-07-21T03:30:28.681Z,2.20
2017-07-21T03:32:56.082Z,2.80
2017-07-21T03:35:23.502Z,2.37
2017-07-21T03:37:50.923Z,2.53
2017-07-21T03:40:18.339Z,2.20
2017-07-21T03:42:45.754Z,2.50
2017-07-21T03:45:13.316Z,2.60
2017-07-21T03:47:40.736Z,2.57
2017-07-21T03:50:08.170Z,2.10
2017-07-21T03:52:35.584Z,1.97
2017-07-21T03:55:03.003Z,3.20
2017-07-21T03:57:31.313Z,2.60
2017-07-21T03:59:58.736Z,2.50
2017-07-21T04:02:26.153Z,2.23
2017-07-21T04:04:53.572Z,2.53
2017-07-21T04:07:20.985Z,2.90
2017-07-21T04:09:48.412Z,3.00
2017-07-21T04:12:15.823Z,3.50
2017-07-21T04:14:43.263Z,2.97
2017-07-21T04:17:11.443Z,2.97
2017-07-21T04:19:38.855Z,3.47
2017-07-21T04:22:06.294Z,3.23
2017-07-21T04:24:33.694Z,3.00
2017-07-21T04:27:01.884Z,3.77
2017-07-21T04:29:29.295Z,3.47
2017-07-21T04:31:56.714Z,2.90
2017-07-21T04:34:24.127Z,3.40
2017-07-21T04:36:51.548Z,3.47
2017-07-21T04:39:18.964Z,3.10
2017-07-21T04:41:46.384Z,2.93
2017-07-21T04:44:13.800Z,3.43
2017-07-21T04:46:41.229Z,2.93
2017-07-21T04:49:08.639Z,3.40
2017-07-21T04:51:36.066Z,2.70
2017-07-21T04:54:03.475Z,3.47
2017-07-21T04:56:31.664Z,3.20
2017-07-21T04:58:59.070Z,3.20
2017-07-21T05:01:26.555Z,3.20
2017-07-21T05:03:53.972Z,3.00
2017-07-21T05:06:21.409Z,3.20
2017-07-21T05:08:48.820Z,3.17
2017-07-21T05:11:17.000Z,3.07
2017-07-21T05:13:44.499Z,3.30
2017-07-21T05:16:11.918Z,2.60
2017-07-21T05:18:39.331Z,3.13
2017-07-21T05:21:06.744Z,3.40
2017-07-21T05:23:34.205Z,3.40
2017-07-21T05:26:01.622Z,3.30
2017-07-21T05:28:29.048Z,3.13
2017-07-21T05:30:56.600Z,3.67
2017-07-21T05:33:24.023Z,3.00
2017-07-21T05:35:51.436Z,4.27
2017-07-21T05:38:18.857Z,3.17
2017-07-21T05:40:46.271Z,3.63
2017-07-21T05:43:13.984Z,3.60
2017-07-21T05:45:41.400Z,3.27
2017-07-21T05:48:08.896Z,3.93
2017-07-21T05:50:36.324Z,3.00
2017-07-21T05:53:03.745Z,3.23
2017-07-21T05:55:31.168Z,3.70
2017-07-21T05:57:58.580Z,3.50
2017-07-21T06:00:26.004Z,3.47
2017-07-21T06:02:53.415Z,3.20
2017-07-21T06:05:20.841Z,3.77
2017-07-21T06:07:48.255Z,3.70
2017-07-21T06:10:15.680Z,3.50
2017-07-21T06:12:43.096Z,4.63
2017-07-21T06:15:10.524Z,3.27
2017-07-21T06:17:37.940Z,2.70
2017-07-21T06:20:05.364Z,2.80
2017-07-21T06:22:33.543Z,2.30
2017-07-21T06:25:00.968Z,2.67
2017-07-21T06:27:28.383Z,2.40
2017-07-21T06:29:55.956Z,2.47
2017-07-21T06:32:23.372Z,3.17
2017-07-21T06:34:50.803Z,3.30
2017-07-21T06:37:18.220Z,2.87
2017-07-21T06:39:45.631Z,2.37
2017-07-21T06:42:13.824Z,2.60
2017-07-21T06:44:41.244Z,2.73
2017-07-21T06:47:08.663Z,2.50
2017-07-21T06:49:36.085Z,2.33
2017-07-21T06:52:04.276Z,2.30
2017-07-21T06:54:31.691Z,3.50
2017-07-21T06:56:59.124Z,2.60
2017-07-21T06:59:26.540Z,2.60
2017-07-21T07:01:53.969Z,3.00
2017-07-21T07:04:22.151Z,2.87
2017-07-21T07:06:49.617Z,2.50
2017-07-21T07:09:17.019Z,2.83
2017-07-21T07:11:44.435Z,3.57
2017-07-21T07:14:11.860Z,2.87
2017-07-21T07:16:40.044Z,2.60
2017-07-21T07:19:07.465Z,2.53
2017-07-21T07:21:34.886Z,3.33
2017-07-21T07:24:02.303Z,2.97
2017-07-21T07:26:30.479Z,3.03
2017-07-21T07:28:57.904Z,2.97
2017-07-21T07:31:25.320Z,2.83
2017-07-21T07:33:52.776Z,2.80
2017-07-21T07:36:20.175Z,2.90
2017-07-21T07:38:47.608Z,2.90
2017-07-21T07:41:15.019Z,2.90
2017-07-21T07:43:42.457Z,2.77
2017-07-21T07:48:43.672Z,2.53
2017-07-21T07:51:11.098Z,2.53
2017-07-21T07:53:38.508Z,2.80
2017-07-21T07:56:05.931Z,3.10
2017-07-21T07:58:33.348Z,2.30
2017-07-21T08:01:00.775Z,2.13
2017-07-21T08:03:28.183Z,2.67
2017-07-21T08:05:55.607Z,2.40
2017-07-21T08:08:23.024Z,3.00
2017-07-21T08:10:50.445Z,2.30
2017-07-21T08:13:18.080Z,2.60
2017-07-21T08:15:45.503Z,2.40
2017-07-21T08:18:12.920Z,2.20
2017-07-21T08:20:40.342Z,2.60
2017-07-21T08:23:07.756Z,2.50
2017-07-21T08:25:35.184Z,3.70
2017-07-21T08:28:02.596Z,2.60
2017-07-21T08:30:30.020Z,2.77
2017-07-21T08:32:57.441Z,3.10
2017-07-21T08:35:24.884Z,2.13
2017-07-21T08:37:52.303Z,2.30
2017-07-21T08:40:19.724Z,2.00
2017-07-21T08:42:47.148Z,2.47
2017-07-21T08:45:14.568Z,3.07
2017-07-21T08:47:42.019Z,2.50
2017-07-21T08:50:09.436Z,2.90
2017-07-21T08:52:36.859Z,2.10
2017-07-21T08:55:05.040Z,2.90
2017-07-21T08:57:32.458Z,2.50
2017-07-21T08:59:59.874Z,2.83
2017-07-21T09:02:27.317Z,3.07
2017-07-21T09:04:55.564Z,2.73
2017-07-21T09:07:22.983Z,2.90
2017-07-21T09:09:50.408Z,2.43
2017-07-21T09:12:17.824Z,2.90
2017-07-21T09:14:45.244Z,2.67
2017-07-21T09:17:12.659Z,2.50
2017-07-21T09:19:40.855Z,2.50
2017-07-21T09:22:08.267Z,2.53
2017-07-21T09:24:35.683Z,2.57
2017-07-21T09:27:03.099Z,2.60
2017-07-21T09:29:31.289Z,2.90
2017-07-21T09:31:58.700Z,3.07
2017-07-21T09:34:26.127Z,2.93
2017-07-21T09:36:53.540Z,2.37
2017-07-21T09:39:21.734Z,2.67
2017-07-21T09:41:49.142Z,2.00
2017-07-21T09:44:16.587Z,2.60
2017-07-21T09:46:44.000Z,2.73
2017-07-21T09:49:11.416Z,2.67
2017-07-21T09:51:38.840Z,2.20
2017-07-21T09:54:06.257Z,3.23
2017-07-21T09:56:33.854Z,2.33
2017-07-21T09:59:01.274Z,2.43
2017-07-21T10:01:29.468Z,2.17
2017-07-21T10:03:56.883Z,2.80
2017-07-21T10:06:24.308Z,2.57
2017-07-21T10:08:51.719Z,2.77
2017-07-21T10:11:19.198Z,2.20
2017-07-21T10:13:46.618Z,2.27
2017-07-21T10:16:14.802Z,3.03
2017-07-21T10:18:42.215Z,2.30
2017-07-21T10:21:09.644Z,2.60
2017-07-21T10:23:37.050Z,2.80
2017-07-21T10:26:05.239Z,2.30
2017-07-21T10:28:32.668Z,2.00
2017-07-21T10:31:00.090Z,2.40
2017-07-21T10:33:27.524Z,1.97
2017-07-21T10:35:54.935Z,2.10
2017-07-21T10:38:23.115Z,2.20
2017-07-21T10:40:50.619Z,2.57
2017-07-21T10:43:18.036Z,2.50
2017-07-21T10:45:45.455Z,2.20
2017-07-21T10:48:12.877Z,2.37
2017-07-21T10:50:40.292Z,2.80
2017-07-21T10:53:08.474Z,2.20
2017-07-21T10:55:35.892Z,2.37
2017-07-21T10:58:03.303Z,2.30
2017-07-21T11:00:30.746Z,2.70
2017-07-21T11:02:58.928Z,2.37
2017-07-21T11:05:26.336Z,2.30
2017-07-21T11:07:53.757Z,2.40
2017-07-21T11:10:21.175Z,2.10
2017-07-21T11:12:49.369Z,2.30
2017-07-21T11:15:16.779Z,2.50
2017-07-21T11:17:44.200Z,2.50
2017-07-21T11:20:11.615Z,2.13
2017-07-21T11:22:39.811Z,2.40
2017-07-21T11:25:07.227Z,2.73
2017-07-21T11:27:34.644Z,2.80
2017-07-21T11:30:02.065Z,2.20
2017-07-21T11:32:29.521Z,2.27
2017-07-21T11:34:56.950Z,2.50
2017-07-21T11:37:24.368Z,2.47
2017-07-21T11:39:51.783Z,2.30
2017-07-21T11:42:19.192Z,2.60
2017-07-21T11:44:46.613Z,2.30
2017-07-21T11:47:14.020Z,2.20
2017-07-21T11:49:41.444Z,2.33
2017-07-21T11:52:08.851Z,2.70
2017-07-21T11:54:37.036Z,2.40
2017-07-21T11:57:05.519Z,3.33
2017-07-21T11:59:32.939Z,2.60
2017-07-21T12:02:00.348Z,2.60
2017-07-21T12:04:27.767Z,2.83
2017-07-21T12:06:55.184Z,2.27
2017-07-21T12:09:22.599Z,2.40
2017-07-21T12:11:50.003Z,3.10
2017-07-21T12:14:17.538Z,2.63
2017-07-21T12:16:44.981Z,2.53
2017-07-21T12:19:12.383Z,2.57
2017-07-21T12:21:39.907Z,2.10
2017-07-21T12:24:07.316Z,2.70
2017-07-21T12:26:35.503Z,2.90
2017-07-21T12:29:02.915Z,2.87
2017-07-21T12:31:30.340Z,2.73
2017-07-21T12:33:57.803Z,2.80
2017-07-21T12:36:25.219Z,3.10
2017-07-21T12:38:53.404Z,3.30
2017-07-21T12:41:20.832Z,3.17
2017-07-21T12:43:48.252Z,2.90
2017-07-21T12:46:15.681Z,2.90
2017-07-21T12:48:43.088Z,2.57
2017-07-21T12:51:10.520Z,2.73
2017-07-21T12:53:37.931Z,3.60
2017-07-21T12:56:05.351Z,2.50
2017-07-21T12:58:32.760Z,2.57
2017-07-21T13:01:00.195Z,2.50
2017-07-21T13:03:27.723Z,2.87
2017-07-21T13:05:55.137Z,2.73
2017-07-21T13:08:22.568Z,2.97
2017-07-21T13:10:49.975Z,2.70
2017-07-21T13:13:17.405Z,2.97
2017-07-21T13:15:44.818Z,2.97
2017-07-21T13:18:13.013Z,2.80
2017-07-21T13:20:40.415Z,2.80
2017-07-21T13:23:07.837Z,2.70
2017-07-21T13:25:35.271Z,3.13
2017-07-21T13:28:03.472Z,3.10
2017-07-21T13:30:30.931Z,3.20
2017-07-21T13:32:58.349Z,3.00
2017-07-21T13:35:25.750Z,2.90
2017-07-21T13:37:53.175Z,3.07
2017-07-21T13:40:20.597Z,3.13
2017-07-21T13:42:48.036Z,3.00
2017-07-21T13:45:15.443Z,3.17
2017-07-21T13:47:42.856Z,3.17
2017-07-21T13:50:10.274Z,2.90
2017-07-21T13:52:37.975Z,2.97
2017-07-21T13:55:05.408Z,3.57
2017-07-21T13:57:32.826Z,3.43
2017-07-21T14:00:00.243Z,3.30
2017-07-21T14:02:27.652Z,2.80
2017-07-21T14:04:55.318Z,3.10
2017-07-21T14:07:22.722Z,3.13
2017-07-21T14:09:50.145Z,2.87
2017-07-21T14:12:17.552Z,2.90
2017-07-21T14:14:44.967Z,3.43
2017-07-21T14:17:12.380Z,2.60
2017-07-21T14:19:39.795Z,3.00
2017-07-21T14:22:07.227Z,3.00
2017-07-21T14:24:34.659Z,3.33
2017-07-21T14:27:02.076Z,3.20
2017-07-21T14:29:29.506Z,2.80
2017-07-21T14:31:56.922Z,2.70
2017-07-21T14:34:24.331Z,2.67
2017-07-21T14:36:52.516Z,3.30
2017-07-21T14:39:19.927Z,2.83
2017-07-21T14:41:47.355Z,3.20
2017-07-21T14:44:14.765Z,3.10
2017-07-21T14:46:42.187Z,3.43
2017-07-21T14:49:09.610Z,3.40
2017-07-21T14:51:37.027Z,3.33
2017-07-21T14:54:04.452Z,4.40
2017-07-21T14:56:31.914Z,3.17
2017-07-21T14:58:59.319Z,3.10
2017-07-21T15:01:26.732Z,3.80
2017-07-21T15:03:54.467Z,3.20
2017-07-21T15:06:22.162Z,3.30
2017-07-21T15:08:49.571Z,3.37
2017-07-21T15:11:17.188Z,3.67
2017-07-21T15:13:44.619Z,3.53
2017-07-21T15:16:12.048Z,3.30
2017-07-21T15:18:39.467Z,3.70
2017-07-21T15:21:07.648Z,3.57
2017-07-21T15:23:35.062Z,3.03
2017-07-21T15:26:02.537Z,4.33
2017-07-21T15:28:29.956Z,3.63
2017-07-21T15:30:57.360Z,3.60
2017-07-21T15:33:25.547Z,3.37
2017-07-21T15:35:52.972Z,3.43
2017-07-21T15:38:20.393Z,2.97
2017-07-21T15:40:47.818Z,3.37
2017-07-21T15:43:16.002Z,3.20
2017-07-21T15:45:43.407Z,3.10
2017-07-21T15:48:10.823Z,3.50
2017-07-21T15:50:38.232Z,3.40
2017-07-21T15:53:05.752Z,3.53
2017-07-21T15:55:33.188Z,3.60
2017-07-21T15:58:00.608Z,3.50
2017-07-21T16:00:28.784Z,3.30
2017-07-21T16:02:56.194Z,3.63
2017-07-21T16:05:23.604Z,3.30
2017-07-21T16:07:51.813Z,3.20
2017-07-21T16:10:19.224Z,3.63
2017-07-21T16:12:46.631Z,3.40
2017-07-21T16:15:14.056Z,4.03
2017-07-21T16:17:41.504Z,3.50
2017-07-21T16:20:08.924Z,3.53
2017-07-21T16:22:36.341Z,3.53
2017-07-21T16:25:03.880Z,3.97
2017-07-21T16:27:31.299Z,3.27
2017-07-21T16:29:58.796Z,3.20
2017-07-21T16:32:26.203Z,3.33
2017-07-21T16:34:53.626Z,2.93
2017-07-21T16:37:21.032Z,3.03
2017-07-21T16:39:49.296Z,3.03
2017-07-21T16:42:16.807Z,3.53
2017-07-21T16:44:44.236Z,3.57
2017-07-21T16:47:11.648Z,3.57
2017-07-21T16:49:39.079Z,3.23
2017-07-21T16:52:06.488Z,3.83
2017-07-21T16:54:34.669Z,3.87
2017-07-21T16:57:02.080Z,4.10
2017-07-21T16:59:29.524Z,3.70
2017-07-21T17:01:56.943Z,3.60
2017-07-21T17:04:24.350Z,3.40
2017-07-21T17:06:51.772Z,3.10
2017-07-21T17:09:19.193Z,3.13
2017-07-21T17:11:46.627Z,3.90
2017-07-21T17:14:14.040Z,3.60
2017-07-21T17:16:41.455Z,3.93
2017-07-21T17:19:08.881Z,3.53
2017-07-21T17:21:36.295Z,3.60
2017-07-21T17:24:03.789Z,3.60
2017-07-21T17:26:31.211Z,3.97
2017-07-21T17:28:58.619Z,4.27
2017-07-21T17:31:26.091Z,3.63
2017-07-21T17:33:54.279Z,3.67
2017-07-21T17:36:22.500Z,3.43
2017-07-21T17:38:49.912Z,3.57
2017-07-21T17:41:17.339Z,3.40
2017-07-21T17:43:44.756Z,3.67
2017-07-21T17:46:12.174Z,4.00
2017-07-21T17:48:39.588Z,4.07
2017-07-21T17:51:07.027Z,3.90
2017-07-21T17:53:34.436Z,4.00
2017-07-21T17:56:02.616Z,3.40
2017-07-21T17:58:30.044Z,4.30
2017-07-21T18:00:57.526Z,3.50
2017-07-21T18:03:25.075Z,5.20
2017-07-21T18:05:52.487Z,4.00
2017-07-21T18:08:19.908Z,3.50
2017-07-21T18:10:47.320Z,4.00
2017-07-21T18:13:14.731Z,3.53
2017-07-21T18:15:42.171Z,3.50
2017-07-21T18:18:09.600Z,4.10
2017-07-21T18:20:38.037Z,4.37
2017-07-21T18:23:05.436Z,3.80
2017-07-21T18:25:33.603Z,3.50
2017-07-21T18:28:01.026Z,3.90
2017-07-21T18:30:28.444Z,3.67
2017-07-21T18:32:55.886Z,3.70
2017-07-21T18:35:24.067Z,3.80
2017-07-21T18:37:51.484Z,3.77
2017-07-21T18:40:18.891Z,4.00
2017-07-21T18:42:46.308Z,3.90
2017-07-21T18:45:13.732Z,4.37
2017-07-21T18:47:41.140Z,4.00
2017-07-21T18:50:08.569Z,4.30
2017-07-21T18:52:36.028Z,3.90
2017-07-21T18:55:03.460Z,3.90
2017-07-21T18:57:30.891Z,3.90
2017-07-21T18:59:58.324Z,4.70
2017-07-21T19:02:25.734Z,4.43
2017-07-21T19:04:53.160Z,4.67
2017-07-21T19:07:20.616Z,4.80
2017-07-21T19:09:48.035Z,3.10
2017-07-21T19:12:16.208Z,4.03
2017-07-21T19:14:43.647Z,5.33
2017-07-21T19:17:11.060Z,3.60
2017-07-21T19:19:38.479Z,4.63
2017-07-21T19:22:05.895Z,4.00
2017-07-21T19:24:33.321Z,4.03
2017-07-21T19:27:00.740Z,3.53
2017-07-21T19:29:28.156Z,4.17
2017-07-21T19:31:55.586Z,4.97
2017-07-21T19:34:23.003Z,4.50
2017-07-21T19:36:50.505Z,3.90
2017-07-21T19:39:17.922Z,4.10
2017-07-21T19:41:45.339Z,3.47
2017-07-21T19:44:12.756Z,3.97
2017-07-21T19:46:40.241Z,3.53
2017-07-21T19:49:07.652Z,4.30
2017-07-21T19:51:35.134Z,3.90
2017-07-21T19:54:02.591Z,4.20
2017-07-21T19:56:30.011Z,4.27
2017-07-21T19:58:57.470Z,4.80
2017-07-21T20:01:24.891Z,3.60
2017-07-21T20:03:52.309Z,3.47
2017-07-21T20:06:19.747Z,3.87
2017-07-21T20:08:47.296Z,3.87
2017-07-21T20:11:15.475Z,4.67
2017-07-21T20:13:42.899Z,4.00
2017-07-21T20:16:10.311Z,3.40
2017-07-21T20:18:37.745Z,4.13
2017-07-21T20:21:05.154Z,5.20
2017-07-21T20:23:32.579Z,3.63
2017-07-21T20:26:00.178Z,4.43
2017-07-21T20:28:27.607Z,3.70
2017-07-21T20:30:55.017Z,3.70
2017-07-21T20:33:22.609Z,3.90
2017-07-21T20:35:50.016Z,4.33
2017-07-21T20:38:17.443Z,5.93
2017-07-21T20:40:44.902Z,5.60
2017-07-21T20:43:12.324Z,3.67
2017-07-21T20:45:39.820Z,3.80
2017-07-21T20:48:07.244Z,3.60
2017-07-21T20:50:34.655Z,3.57
2017-07-21T20:53:02.849Z,3.00
2017-07-21T20:55:30.268Z,3.10
2017-07-21T20:57:57.719Z,2.90
2017-07-21T21:00:25.140Z,3.53
2017-07-21T21:02:52.557Z,2.90
2017-07-21T21:05:19.984Z,3.20
2017-07-21T21:07:47.398Z,3.10
2017-07-21T21:10:14.827Z,3.43
2017-07-21T21:12:42.239Z,3.47
2017-07-21T21:15:09.667Z,3.40
2017-07-21T21:17:37.071Z,3.57
2017-07-21T21:20:04.500Z,3.37
2017-07-21T21:22:31.908Z,3.63
2017-07-21T21:24:59.328Z,3.63
2017-07-21T21:27:26.751Z,4.30
2017-07-21T21:29:54.180Z,3.50
2017-07-21T21:32:21.591Z,3.13
2017-07-21T21:34:49.011Z,3.43
2017-07-21T21:37:16.423Z,3.33
2017-07-21T21:39:43.847Z,3.50
2017-07-21T21:42:11.267Z,3.97
2017-07-21T21:44:38.692Z,3.13
2017-07-21T21:47:06.867Z,3.80
2017-07-21T21:49:34.294Z,4.00
2017-07-21T21:52:01.710Z,3.63
2017-07-21T21:54:29.126Z,3.70
2017-07-21T21:56:57.304Z,3.40
2017-07-21T21:59:24.742Z,3.50
2017-07-21T22:01:52.156Z,3.30
2017-07-21T22:04:19.571Z,3.77
2017-07-21T22:06:47.759Z,3.47
2017-07-21T22:09:15.172Z,3.37
2017-07-21T22:11:42.599Z,3.70
2017-07-21T22:14:10.012Z,4.53
2017-07-21T22:16:38.204Z,3.73
2017-07-21T22:19:05.618Z,4.03
2017-07-21T22:21:33.043Z,3.80
2017-07-21T22:24:00.456Z,4.07
2017-07-21T22:26:27.879Z,3.13
2017-07-21T22:28:55.297Z,3.17
2017-07-21T22:31:22.720Z,3.17
2017-07-21T22:33:50.141Z,3.63
2017-07-21T22:36:17.564Z,4.10
2017-07-21T22:38:45.024Z,3.43
2017-07-21T22:41:12.435Z,3.97
2017-07-21T22:43:39.859Z,3.90
2017-07-21T22:46:07.277Z,4.70
2017-07-21T22:48:34.791Z,3.70
2017-07-21T22:51:02.207Z,4.00
2017-07-21T22:53:29.627Z,4.80
2017-07-21T22:55:57.044Z,4.00
2017-07-21T22:58:24.460Z,4.97
2017-07-21T23:00:51.884Z,4.33
2017-07-21T23:03:19.308Z,3.80
2017-07-21T23:05:46.728Z,4.30
2017-07-21T23:08:14.168Z,4.20
2017-07-21T23:10:41.580Z,4.50
2017-07-21T23:13:09.008Z,5.33
2017-07-21T23:15:36.419Z,4.27
2017-07-21T23:18:03.848Z,4.40
2017-07-21T23:20:31.263Z,4.77
2017-07-21T23:22:58.675Z,5.77
2017-07-21T23:25:26.095Z,4.40
2017-07-21T23:27:53.516Z,4.57
2017-07-21T23:30:20.936Z,4.17
2017-07-21T23:32:48.347Z,4.10
2017-07-21T23:35:15.774Z,4.30
2017-07-21T23:37:43.184Z,4.43
2017-07-21T23:40:10.716Z,4.47
2017-07-21T23:42:38.135Z,4.40
2017-07-21T23:45:05.550Z,3.80
2017-07-21T23:47:32.969Z,4.57
2017-07-21T23:50:00.507Z,4.57
2017-07-21T23:52:27.927Z,5.57
2017-07-21T23:54:55.348Z,4.87
2017-07-21T23:57:22.771Z,5.17
2017-07-21T23:59:50.192Z,5.87
